createdAt,value
2019-03-06T00:00:30.469Z,14.60
2019-03-06T00:03:02.177Z,14.50
2019-03-06T00:05:32.622Z,14.50
2019-03-06T00:08:03.098Z,14.50
2019-03-06T00:10:33.360Z,14.40
2019-03-06T00:13:03.507Z,14.40
2019-03-06T00:15:33.766Z,14.40
2019-03-06T00:18:04.612Z,14.40
2019-03-06T00:20:34.785Z,14.40
2019-03-06T00:23:05.039Z,14.30
2019-03-06T00:25:35.256Z,14.30
2019-03-06T00:28:05.472Z,14.30
2019-03-06T00:30:35.714Z,14.20
2019-03-06T00:33:05.951Z,14.10
2019-03-06T00:35:37.813Z,14.20
2019-03-06T00:38:08.433Z,14.10
2019-03-06T00:40:43.252Z,14.00
2019-03-06T00:43:13.804Z,14.00
2019-03-06T00:45:43.973Z,13.90
2019-03-06T00:48:14.449Z,13.90
2019-03-06T00:50:45.167Z,13.90
2019-03-06T00:53:15.610Z,13.90
2019-03-06T00:55:45.757Z,13.80
2019-03-06T00:58:15.921Z,13.90
2019-03-06T01:00:46.169Z,13.90
2019-03-06T01:03:16.247Z,13.90
2019-03-06T01:05:46.605Z,13.90
2019-03-06T01:08:18.084Z,13.90
2019-03-06T01:10:48.299Z,13.90
2019-03-06T01:13:18.759Z,13.90
2019-03-06T01:15:48.828Z,13.90
2019-03-06T01:18:19.008Z,13.90
2019-03-06T01:20:49.324Z,13.80
2019-03-06T01:23:19.497Z,13.80
2019-03-06T01:25:50.022Z,13.80
2019-03-06T01:28:20.167Z,13.70
2019-03-06T01:30:50.200Z,13.70
2019-03-06T01:33:30.798Z,13.70
2019-03-06T01:36:02.516Z,13.60
2019-03-06T01:38:37.325Z,13.70
2019-03-06T01:41:09.125Z,13.60
2019-03-06T01:43:59.712Z,13.70
2019-03-06T01:46:31.180Z,13.60
2019-03-06T01:49:01.456Z,13.60
2019-03-06T01:51:31.465Z,13.60
2019-03-06T01:54:01.996Z,13.60
2019-03-06T01:56:32.147Z,13.60
2019-03-06T01:59:02.371Z,13.60
2019-03-06T02:01:32.619Z,13.50
2019-03-06T02:04:03.702Z,13.60
2019-03-06T02:06:34.937Z,13.50
2019-03-06T02:09:09.082Z,13.50
2019-03-06T02:11:39.435Z,13.50
2019-03-06T02:14:09.578Z,13.50
2019-03-06T02:16:39.812Z,13.50
2019-03-06T02:19:10.046Z,13.40
2019-03-06T02:21:40.270Z,13.40
2019-03-06T02:24:10.496Z,13.40
2019-03-06T02:26:40.644Z,13.40
2019-03-06T02:29:11.365Z,13.30
2019-03-06T02:31:41.572Z,13.30
2019-03-06T02:34:11.741Z,13.30
2019-03-06T02:36:41.879Z,13.30
2019-03-06T02:39:12.241Z,13.30
2019-03-06T02:41:42.442Z,13.30
2019-03-06T02:44:12.534Z,13.20
2019-03-06T02:46:42.677Z,13.20
2019-03-06T02:49:12.765Z,13.20
2019-03-06T02:51:42.994Z,13.10
2019-03-06T02:54:13.157Z,13.20
2019-03-06T02:56:43.264Z,13.20
2019-03-06T02:59:18.313Z,13.20
2019-03-06T03:01:56.224Z,13.10
2019-03-06T03:04:30.552Z,13.20
2019-03-06T03:07:02.471Z,13.20
2019-03-06T03:09:32.931Z,13.20
2019-03-06T03:12:03.025Z,13.10
2019-03-06T03:14:33.474Z,13.10
2019-03-06T03:17:03.755Z,13.10
2019-03-06T03:19:34.338Z,13.10
2019-03-06T03:22:04.845Z,13.10
2019-03-06T03:24:34.899Z,13.10
2019-03-06T03:27:05.061Z,13.10
2019-03-06T03:29:35.210Z,13.10
2019-03-06T03:32:05.399Z,13.10
2019-03-06T03:34:35.866Z,13.10
2019-03-06T03:37:06.498Z,13.10
2019-03-06T03:39:36.708Z,13.10
2019-03-06T03:42:06.869Z,13.10
2019-03-06T03:44:37.003Z,13.00
2019-03-06T03:47:07.209Z,13.00
2019-03-06T03:49:37.289Z,13.00
2019-03-06T03:52:07.524Z,13.00
2019-03-06T03:54:38.057Z,13.00
2019-03-06T03:57:08.198Z,13.00
2019-03-06T03:59:38.705Z,12.90
2019-03-06T04:02:08.918Z,12.90
2019-03-06T04:04:39.011Z,12.90
2019-03-06T04:07:09.328Z,12.90
2019-03-06T04:09:39.897Z,12.90
2019-03-06T04:12:10.051Z,12.80
2019-03-06T04:14:40.440Z,12.80
2019-03-06T04:17:10.582Z,12.80
2019-03-06T04:19:40.587Z,12.80
2019-03-06T04:22:10.948Z,12.70
2019-03-06T04:24:41.420Z,12.70
2019-03-06T04:27:11.578Z,12.70
2019-03-06T04:29:41.740Z,12.70
2019-03-06T04:32:11.914Z,12.60
2019-03-06T04:34:42.190Z,12.60
2019-03-06T04:37:13.764Z,12.60
2019-03-06T04:39:44.184Z,12.60
2019-03-06T04:42:14.322Z,12.60
2019-03-06T04:44:44.494Z,12.60
2019-03-06T04:47:14.955Z,12.50
2019-03-06T04:49:52.372Z,12.50
2019-03-06T04:52:18.229Z,12.50
2019-03-06T04:54:48.312Z,12.50
2019-03-06T04:57:18.514Z,12.50
2019-03-06T04:59:48.529Z,12.50
2019-03-06T05:02:18.954Z,12.50
2019-03-06T05:04:48.970Z,12.50
2019-03-06T05:07:19.122Z,12.50
2019-03-06T05:09:49.190Z,12.50
2019-03-06T05:12:19.370Z,12.50
2019-03-06T05:15:02.168Z,12.50
2019-03-06T05:17:39.990Z,12.50
2019-03-06T05:20:10.193Z,12.50
2019-03-06T05:22:40.380Z,12.50
2019-03-06T05:25:10.911Z,12.50
2019-03-06T05:27:40.996Z,12.50
2019-03-06T05:30:13.628Z,12.60
2019-03-06T05:32:45.551Z,12.50
2019-03-06T05:35:27.329Z,12.50
2019-03-06T05:38:00.708Z,12.60
2019-03-06T05:40:31.854Z,12.50
2019-03-06T05:43:02.335Z,12.40
2019-03-06T05:45:32.760Z,12.40
2019-03-06T05:48:03.605Z,12.40
2019-03-06T05:50:34.022Z,12.40
2019-03-06T05:53:04.196Z,12.30
2019-03-06T05:55:34.386Z,12.30
2019-03-06T05:58:04.816Z,12.30
2019-03-06T06:00:34.983Z,12.30
2019-03-06T06:03:05.149Z,12.30
2019-03-06T06:05:35.670Z,12.30
2019-03-06T06:08:05.836Z,12.30
2019-03-06T06:10:36.283Z,12.30
2019-03-06T06:13:08.486Z,12.30
2019-03-06T06:15:38.701Z,12.40
2019-03-06T06:18:09.190Z,12.30
2019-03-06T06:20:39.412Z,12.40
2019-03-06T06:23:11.197Z,12.40
2019-03-06T06:25:41.681Z,10.90
2019-03-06T06:28:12.040Z,10.00
2019-03-06T06:30:42.189Z,9.40
2019-03-06T06:33:12.495Z,9.00
2019-03-06T06:35:42.736Z,8.80
2019-03-06T06:38:13.270Z,8.80
2019-03-06T06:40:43.443Z,8.80
2019-03-06T06:43:13.916Z,9.00
2019-03-06T06:45:44.184Z,9.10
2019-03-06T06:48:16.501Z,9.20
2019-03-06T06:51:01.449Z,9.30
2019-03-06T06:53:42.078Z,9.40
2019-03-06T06:56:33.187Z,9.20
2019-03-06T06:59:25.626Z,9.10
2019-03-06T07:02:19.526Z,9.30
2019-03-06T07:05:30.727Z,9.50
2019-03-06T07:08:18.701Z,9.60
2019-03-06T07:10:53.389Z,9.90
2019-03-06T07:13:34.262Z,10.00
2019-03-06T07:16:22.526Z,9.70
2019-03-06T07:18:57.663Z,9.80
2019-03-06T07:21:35.472Z,10.10
2019-03-06T07:24:19.620Z,10.30
2019-03-06T07:26:54.420Z,10.30
2019-03-06T07:29:43.011Z,10.40
2019-03-06T07:32:20.418Z,10.80
2019-03-06T07:35:45.397Z,10.70
2019-03-06T07:38:15.929Z,10.70
2019-03-06T07:41:04.192Z,11.80
2019-03-06T07:43:36.238Z,12.40
2019-03-06T07:46:17.110Z,13.30
2019-03-06T07:49:01.461Z,14.30
2019-03-06T07:51:36.597Z,15.00
2019-03-06T07:54:17.779Z,15.40
2019-03-06T07:57:01.657Z,15.80
2019-03-06T07:59:31.363Z,15.80
2019-03-06T08:02:07.156Z,16.20
2019-03-06T08:04:37.352Z,16.70
2019-03-06T08:07:14.355Z,16.70
2019-03-06T08:09:45.018Z,16.50
2019-03-06T08:12:26.200Z,16.20
2019-03-06T08:15:14.290Z,16.50
2019-03-06T08:17:52.177Z,17.10
2019-03-06T08:20:27.168Z,17.60
2019-03-06T08:23:15.060Z,18.30
2019-03-06T08:25:44.536Z,18.80
2019-03-06T08:28:15.223Z,19.30
2019-03-06T08:30:47.138Z,19.30
2019-03-06T08:33:18.522Z,19.20
2019-03-06T08:35:49.083Z,18.70
2019-03-06T08:38:19.244Z,18.30
2019-03-06T08:40:49.743Z,18.30
2019-03-06T08:43:19.891Z,19.50
2019-03-06T08:45:57.692Z,20.60
2019-03-06T08:48:38.742Z,20.50
2019-03-06T08:51:10.611Z,20.30
2019-03-06T08:53:48.447Z,19.90
2019-03-06T08:56:29.281Z,20.70
2019-03-06T08:59:07.259Z,21.20
2019-03-06T09:01:42.921Z,22.30
2019-03-06T09:04:18.068Z,23.20
2019-03-06T09:06:52.795Z,23.50
2019-03-06T09:09:44.094Z,24.30
2019-03-06T09:12:15.921Z,23.80
2019-03-06T09:14:59.772Z,22.80
2019-03-06T09:17:47.106Z,22.80
2019-03-06T09:20:39.019Z,22.50
2019-03-06T09:23:11.378Z,22.90
2019-03-06T09:25:44.278Z,23.90
2019-03-06T09:28:22.243Z,24.40
2019-03-06T09:30:54.216Z,24.00
2019-03-06T09:33:26.449Z,24.30
2019-03-06T09:35:58.241Z,24.30
2019-03-06T09:38:30.476Z,24.80
2019-03-06T09:41:19.129Z,24.90
2019-03-06T09:44:00.315Z,25.30
2019-03-06T09:46:48.852Z,25.60
2019-03-06T09:49:26.452Z,24.90
2019-03-06T09:52:01.279Z,24.90
2019-03-06T09:54:39.294Z,24.90
2019-03-06T09:57:13.885Z,24.80
2019-03-06T09:59:46.077Z,25.30
2019-03-06T10:02:20.816Z,25.90
2019-03-06T10:04:55.355Z,26.30
2019-03-06T10:07:30.102Z,25.80
2019-03-06T10:10:02.348Z,25.60
2019-03-06T10:12:35.441Z,25.60
2019-03-06T10:15:16.773Z,24.90
2019-03-06T10:17:54.694Z,24.90
2019-03-06T10:20:25.843Z,25.10
2019-03-06T10:22:59.539Z,24.60
2019-03-06T10:25:30.642Z,24.70
2019-03-06T10:28:06.376Z,25.40
2019-03-06T10:30:32.265Z,26.00
2019-03-06T10:33:02.903Z,26.20
2019-03-06T10:35:34.435Z,25.90
2019-03-06T10:38:05.030Z,25.50
2019-03-06T10:40:35.172Z,25.50
2019-03-06T10:43:05.818Z,26.70
2019-03-06T10:45:41.889Z,26.90
2019-03-06T10:48:07.922Z,26.70
2019-03-06T10:50:38.057Z,27.60
2019-03-06T10:53:08.292Z,28.70
2019-03-06T10:55:38.443Z,29.70
2019-03-06T10:58:08.465Z,30.00
2019-03-06T11:00:40.513Z,30.00
2019-03-06T11:03:10.746Z,30.40
2019-03-06T11:05:41.318Z,29.90
2019-03-06T11:08:11.848Z,29.50
2019-03-06T11:10:43.394Z,29.70
2019-03-06T11:13:13.902Z,29.90
2019-03-06T11:15:44.560Z,29.70
2019-03-06T11:18:16.485Z,29.80
2019-03-06T11:20:47.143Z,30.20
2019-03-06T11:23:17.682Z,30.60
2019-03-06T11:25:47.923Z,31.10
2019-03-06T11:28:18.633Z,31.00
2019-03-06T11:30:53.966Z,29.40
2019-03-06T11:33:26.237Z,27.50
2019-03-06T11:35:59.209Z,25.40
2019-03-06T11:38:29.509Z,24.10
2019-03-06T11:41:00.370Z,23.30
2019-03-06T11:43:31.812Z,22.50
2019-03-06T11:46:02.324Z,22.10
2019-03-06T11:48:33.009Z,21.90
2019-03-06T11:51:03.402Z,21.80
2019-03-06T11:53:33.507Z,21.50
2019-03-06T11:56:04.422Z,21.40
2019-03-06T11:58:34.660Z,21.40
2019-03-06T12:01:07.993Z,21.10
2019-03-06T12:03:38.426Z,20.90
2019-03-06T12:06:08.957Z,20.80
2019-03-06T12:08:45.494Z,20.80
2019-03-06T12:11:10.968Z,21.00
2019-03-06T12:13:41.439Z,21.20
2019-03-06T12:16:14.193Z,21.30
2019-03-06T12:18:44.682Z,21.20
2019-03-06T12:21:14.823Z,21.30
2019-03-06T12:23:45.098Z,21.30
2019-03-06T12:26:15.235Z,21.10
2019-03-06T12:28:45.645Z,21.10
2019-03-06T12:31:16.089Z,21.10
2019-03-06T12:33:46.343Z,20.90
2019-03-06T12:36:16.517Z,20.80
2019-03-06T12:38:46.751Z,20.80
2019-03-06T12:41:17.105Z,20.80
2019-03-06T12:43:47.252Z,20.70
2019-03-06T12:46:23.443Z,20.70
2019-03-06T12:48:56.915Z,20.50
2019-03-06T12:51:27.071Z,20.30
2019-03-06T12:53:57.506Z,20.30
2019-03-06T12:56:27.814Z,20.20
2019-03-06T12:58:57.963Z,20.10
2019-03-06T13:01:29.520Z,20.00
2019-03-06T13:03:59.662Z,20.10
2019-03-06T13:06:30.147Z,20.00
2019-03-06T13:09:01.094Z,19.90
2019-03-06T13:11:32.918Z,20.00
2019-03-06T13:14:03.071Z,19.70
2019-03-06T13:16:33.309Z,19.70
2019-03-06T13:19:03.563Z,19.70
2019-03-06T13:21:33.792Z,19.80
2019-03-06T13:24:04.124Z,19.90
2019-03-06T13:26:34.285Z,19.90
2019-03-06T13:29:05.533Z,19.70
2019-03-06T13:31:36.038Z,19.80
2019-03-06T13:34:16.630Z,19.70
2019-03-06T13:36:46.759Z,19.60
2019-03-06T13:39:17.234Z,19.50
2019-03-06T13:41:47.536Z,19.40
2019-03-06T13:44:19.080Z,19.30
2019-03-06T13:46:49.685Z,19.30
2019-03-06T13:49:19.911Z,19.30
2019-03-06T13:51:50.123Z,19.20
2019-03-06T13:54:20.206Z,19.20
2019-03-06T13:56:51.862Z,19.20
2019-03-06T13:59:22.536Z,19.30
2019-03-06T14:01:52.787Z,19.30
2019-03-06T14:04:22.989Z,19.30
2019-03-06T14:06:53.161Z,19.30
2019-03-06T14:09:23.684Z,19.40
2019-03-06T14:11:53.750Z,19.40
2019-03-06T14:14:23.905Z,19.30
2019-03-06T14:16:56.029Z,19.20
2019-03-06T14:19:27.492Z,19.10
2019-03-06T14:21:57.601Z,19.20
2019-03-06T14:24:28.235Z,19.20
2019-03-06T14:26:58.317Z,19.10
2019-03-06T14:29:28.419Z,19.00
2019-03-06T14:31:58.803Z,19.10
2019-03-06T14:34:29.340Z,19.20
2019-03-06T14:37:00.167Z,19.20
2019-03-06T14:39:31.110Z,19.20
2019-03-06T14:42:01.842Z,19.20
2019-03-06T14:44:32.378Z,19.30
2019-03-06T14:47:02.650Z,19.30
2019-03-06T14:49:33.090Z,19.30
2019-03-06T14:52:07.296Z,19.30
2019-03-06T14:54:35.508Z,19.20
2019-03-06T14:57:06.036Z,19.20
2019-03-06T14:59:36.467Z,19.10
2019-03-06T15:02:06.785Z,19.00
2019-03-06T15:04:37.306Z,19.00
2019-03-06T15:07:07.520Z,19.00
2019-03-06T15:09:37.746Z,19.00
2019-03-06T15:12:07.959Z,18.90
2019-03-06T15:14:38.042Z,18.80
2019-03-06T15:17:08.360Z,18.90
2019-03-06T15:19:39.234Z,18.80
2019-03-06T15:22:09.904Z,18.80
2019-03-06T15:24:41.701Z,18.80
2019-03-06T15:27:11.735Z,18.80
2019-03-06T15:29:43.330Z,18.80
2019-03-06T15:32:13.461Z,18.70
2019-03-06T15:34:44.714Z,18.60
2019-03-06T15:37:15.318Z,18.60
2019-03-06T15:39:48.591Z,18.60
2019-03-06T15:42:17.411Z,18.50
2019-03-06T15:44:47.689Z,18.40
2019-03-06T15:47:17.828Z,18.40
2019-03-06T15:49:48.004Z,18.30
2019-03-06T15:52:18.278Z,18.30
2019-03-06T15:54:48.613Z,18.20
2019-03-06T15:57:19.268Z,18.10
2019-03-06T15:59:49.539Z,18.00
2019-03-06T16:02:19.734Z,18.00
2019-03-06T16:04:50.228Z,18.00
2019-03-06T16:07:20.631Z,17.90
2019-03-06T16:09:51.190Z,17.80
2019-03-06T16:12:21.385Z,17.80
2019-03-06T16:14:51.541Z,17.70
2019-03-06T16:17:22.044Z,17.70
2019-03-06T16:19:52.204Z,17.70
2019-03-06T16:22:22.700Z,17.70
2019-03-06T16:24:52.874Z,17.70
2019-03-06T16:27:23.053Z,17.60
2019-03-06T16:29:53.544Z,17.50
2019-03-06T16:32:23.702Z,17.40
2019-03-06T16:34:53.733Z,17.30
2019-03-06T16:37:23.810Z,17.20
2019-03-06T16:39:54.024Z,17.00
2019-03-06T16:42:24.591Z,16.90
2019-03-06T16:44:54.759Z,16.70
2019-03-06T16:47:25.528Z,16.70
2019-03-06T16:49:55.612Z,16.60
2019-03-06T16:52:26.179Z,16.50
2019-03-06T16:54:56.355Z,16.50
2019-03-06T16:57:26.658Z,16.50
2019-03-06T16:59:57.562Z,16.40
2019-03-06T17:02:27.906Z,16.40
2019-03-06T17:04:58.130Z,16.40
2019-03-06T17:07:28.440Z,16.30
2019-03-06T17:09:58.599Z,16.10
2019-03-06T17:12:29.081Z,16.00
2019-03-06T17:14:59.711Z,15.90
2019-03-06T17:17:29.929Z,15.90
2019-03-06T17:20:00.576Z,15.70
2019-03-06T17:22:31.092Z,15.70
2019-03-06T17:25:01.369Z,15.70
2019-03-06T17:27:31.577Z,15.70
2019-03-06T17:30:01.740Z,15.70
2019-03-06T17:32:31.962Z,15.80
2019-03-06T17:35:02.494Z,15.80
2019-03-06T17:37:32.661Z,15.80
2019-03-06T17:40:03.469Z,15.80
2019-03-06T17:42:33.637Z,15.70
2019-03-06T17:45:04.410Z,15.60
2019-03-06T17:47:34.606Z,15.40
2019-03-06T17:50:07.045Z,15.30
2019-03-06T17:52:37.482Z,15.40
2019-03-06T17:55:09.100Z,15.50
2019-03-06T17:57:39.360Z,15.40
2019-03-06T18:00:16.970Z,15.40
2019-03-06T18:02:44.890Z,15.30
2019-03-06T18:05:16.033Z,15.30
2019-03-06T18:07:46.377Z,15.20
2019-03-06T18:10:18.226Z,15.10
2019-03-06T18:12:48.731Z,14.90
2019-03-06T18:15:19.604Z,14.90
2019-03-06T18:17:50.249Z,14.80
2019-03-06T18:20:20.406Z,14.80
2019-03-06T18:22:50.554Z,14.90
2019-03-06T18:25:24.935Z,14.90
2019-03-06T18:27:55.169Z,15.00
2019-03-06T18:30:25.786Z,15.00
2019-03-06T18:32:56.025Z,15.10
2019-03-06T18:35:26.180Z,15.00
2019-03-06T18:37:56.600Z,14.90
2019-03-06T18:40:27.041Z,14.90
2019-03-06T18:42:57.550Z,14.60
2019-03-06T18:45:28.081Z,14.60
2019-03-06T18:47:58.233Z,14.70
2019-03-06T18:50:28.317Z,14.80
2019-03-06T18:52:59.203Z,14.90
2019-03-06T18:55:29.522Z,14.70
2019-03-06T18:57:59.921Z,14.60
2019-03-06T19:00:33.834Z,14.60
2019-03-06T19:03:05.469Z,14.60
2019-03-06T19:05:37.009Z,14.60
2019-03-06T19:08:08.369Z,14.50
2019-03-06T19:10:38.689Z,14.60
2019-03-06T19:13:09.057Z,14.50
2019-03-06T19:15:39.321Z,14.50
2019-03-06T19:18:09.601Z,14.50
2019-03-06T19:20:39.836Z,14.50
2019-03-06T19:23:10.336Z,14.40
2019-03-06T19:25:40.639Z,14.50
2019-03-06T19:28:10.841Z,14.40
2019-03-06T19:30:40.998Z,14.50
2019-03-06T19:33:11.166Z,14.40
2019-03-06T19:35:41.410Z,14.40
2019-03-06T19:38:11.861Z,14.30
2019-03-06T19:40:42.357Z,14.40
2019-03-06T19:43:12.589Z,14.40
2019-03-06T19:45:43.140Z,14.40
2019-03-06T19:48:13.230Z,14.50
2019-03-06T19:50:43.514Z,14.60
2019-03-06T19:53:14.117Z,14.60
2019-03-06T19:55:44.336Z,14.50
2019-03-06T19:58:14.506Z,14.50
2019-03-06T20:00:44.728Z,14.60
2019-03-06T20:03:15.254Z,14.80
2019-03-06T20:05:45.570Z,14.70
2019-03-06T20:08:16.505Z,14.60
2019-03-06T20:10:46.663Z,14.50
2019-03-06T20:13:16.937Z,14.40
2019-03-06T20:15:47.147Z,14.50
2019-03-06T20:18:17.397Z,14.60
2019-03-06T20:20:48.002Z,14.70
2019-03-06T20:23:18.224Z,14.80
2019-03-06T20:25:49.062Z,14.60
2019-03-06T20:28:19.686Z,14.60
2019-03-06T20:30:49.961Z,14.70
2019-03-06T20:33:20.762Z,14.60
2019-03-06T20:35:51.487Z,14.40
2019-03-06T20:38:21.709Z,14.40
2019-03-06T20:40:52.064Z,14.50
2019-03-06T20:43:22.642Z,14.40
2019-03-06T20:45:52.926Z,14.30
2019-03-06T20:48:23.352Z,14.30
2019-03-06T20:50:53.574Z,14.10
2019-03-06T20:53:23.833Z,14.30
2019-03-06T20:55:54.060Z,14.20
2019-03-06T20:58:25.294Z,14.30
2019-03-06T21:00:55.608Z,14.30
2019-03-06T21:03:26.242Z,14.30
2019-03-06T21:05:56.688Z,14.30
2019-03-06T21:08:26.966Z,14.30
2019-03-06T21:10:57.217Z,14.20
2019-03-06T21:13:27.395Z,14.20
2019-03-06T21:15:57.554Z,14.00
2019-03-06T21:18:27.781Z,13.90
2019-03-06T21:20:58.317Z,13.90
2019-03-06T21:23:28.463Z,13.80
2019-03-06T21:25:58.685Z,13.80
2019-03-06T21:28:29.304Z,13.80
2019-03-06T21:30:59.563Z,13.70
2019-03-06T21:33:29.729Z,13.70
2019-03-06T21:35:59.879Z,13.80
2019-03-06T21:38:30.174Z,13.80
2019-03-06T21:41:00.449Z,13.90
2019-03-06T21:43:30.654Z,13.80
2019-03-06T21:46:01.487Z,13.70
2019-03-06T21:48:31.825Z,13.70
2019-03-06T21:51:02.074Z,13.70
2019-03-06T21:53:32.300Z,13.80
2019-03-06T21:56:02.514Z,13.90
2019-03-06T21:58:33.893Z,14.00
2019-03-06T22:01:04.120Z,13.90
2019-03-06T22:03:34.973Z,13.90
2019-03-06T22:06:06.148Z,13.70
2019-03-06T22:08:36.432Z,13.70
2019-03-06T22:11:06.870Z,13.70
2019-03-06T22:13:37.042Z,13.80
2019-03-06T22:16:07.193Z,13.80
2019-03-06T22:18:38.659Z,13.80
2019-03-06T22:21:09.082Z,13.80
2019-03-06T22:23:39.327Z,13.70
2019-03-06T22:26:09.862Z,13.60
2019-03-06T22:28:39.993Z,13.50
2019-03-06T22:31:10.587Z,13.60
2019-03-06T22:33:40.813Z,13.70
2019-03-06T22:36:11.103Z,13.90
2019-03-06T22:38:41.564Z,14.00
2019-03-06T22:41:11.658Z,14.00
2019-03-06T22:43:42.204Z,14.20
2019-03-06T22:46:12.741Z,14.20
2019-03-06T22:48:43.173Z,14.20
2019-03-06T22:51:13.691Z,14.30
2019-03-06T22:53:43.872Z,14.20
2019-03-06T22:56:14.017Z,14.30
2019-03-06T22:58:44.567Z,14.20
2019-03-06T23:01:20.951Z,14.20
2019-03-06T23:03:54.546Z,14.20
2019-03-06T23:06:24.813Z,14.30
2019-03-06T23:08:54.973Z,14.70
2019-03-06T23:11:25.621Z,15.10
2019-03-06T23:13:55.787Z,15.50
2019-03-06T23:16:25.959Z,15.90
2019-03-06T23:18:56.182Z,16.20
2019-03-06T23:21:26.612Z,16.40
2019-03-06T23:23:56.988Z,16.60
2019-03-06T23:26:27.117Z,16.80
2019-03-06T23:28:57.254Z,16.90
2019-03-06T23:31:27.792Z,17.00
2019-03-06T23:33:58.157Z,17.10
2019-03-06T23:36:28.232Z,17.10
2019-03-06T23:38:58.333Z,17.20
2019-03-06T23:41:28.529Z,17.20
2019-03-06T23:43:58.718Z,17.30
2019-03-06T23:46:28.739Z,17.30
2019-03-06T23:48:58.958Z,17.30
2019-03-06T23:51:30.282Z,17.30
2019-03-06T23:54:00.437Z,17.30
2019-03-06T23:56:30.593Z,17.20
2019-03-06T23:59:00.812Z,17.30
